Time;durP1;ratioP1;P1;durP2;ratioP2;P2;SDS_P1;SDS_P2;PMS_P1;PMS_P2;Temp;Humidity;BMP_temperature;BMP_pressure;BME280_temperature;BME280_humidity;BME280_pressure;Samples;Min_cycle;Max_cycle;Signal;HPM_P1;HPM_P2
2023/06/20 00:00:52;;;;;;;5.35;3.22;;;26.60;54.30;;;;;;5015042;28;20262;-26
2023/06/20 00:03:18;;;;;;;4.50;3.20;;;26.60;54.30;;;;;;5021280;28;20536;-25
2023/06/20 00:05:44;;;;;;;5.00;2.97;;;26.50;54.40;;;;;;4992646;28;20238;-28
2023/06/20 00:08:10;;;;;;;5.22;2.85;;;26.50;54.50;;;;;;4993085;28;20088;-25
2023/06/20 00:10:36;;;;;;;4.20;2.83;;;26.40;54.40;;;;;;5006551;28;20017;-26
2023/06/20 00:13:03;;;;;;;5.47;3.07;;;26.40;54.50;;;;;;5008697;28;20009;-26
2023/06/20 00:15:29;;;;;;;4.35;3.00;;;26.40;54.70;;;;;;5010723;28;20056;-26
2023/06/20 00:17:56;;;;;;;4.53;2.90;;;26.40;54.90;;;;;;5001414;28;20529;-26
2023/06/20 00:20:22;;;;;;;4.20;3.05;;;26.40;55.00;;;;;;5019871;28;20029;-24
2023/06/20 00:22:50;;;;;;;4.37;2.87;;;26.30;55.00;;;;;;4971056;28;20029;-25
2023/06/20 00:25:17;;;;;;;5.32;3.10;;;26.30;55.20;;;;;;5056946;28;20322;-25
2023/06/20 00:27:43;;;;;;;4.28;3.10;;;26.30;55.40;;;;;;5018419;28;20045;-26
2023/06/20 00:30:09;;;;;;;5.38;3.13;;;26.30;55.50;;;;;;5009384;28;20039;-26
2023/06/20 00:32:35;;;;;;;4.75;2.90;;;26.20;55.40;;;;;;5023455;28;20659;-25
2023/06/20 00:35:01;;;;;;;4.10;3.10;;;26.20;55.40;;;;;;5020324;28;20044;-27
2023/06/20 00:37:27;;;;;;;4.30;2.80;;;26.20;55.50;;;;;;5001167;28;20072;-26
2023/06/20 00:39:53;;;;;;;4.50;3.17;;;26.20;55.50;;;;;;4995024;28;20284;-26
2023/06/20 00:42:20;;;;;;;4.85;3.03;;;26.10;55.40;;;;;;5024017;28;20109;-28
2023/06/20 00:44:46;;;;;;;4.40;3.10;;;26.10;55.50;;;;;;5044064;28;20227;-25
2023/06/20 00:47:16;;;;;;;4.30;2.95;;;26.10;55.60;;;;;;5024459;28;20033;-28
2023/06/20 00:49:44;;;;;;;4.03;3.03;;;26.10;55.80;;;;;;5047458;28;20523;-29
2023/06/20 00:52:11;;;;;;;4.53;3.10;;;26.10;55.70;;;;;;5017871;28;20064;-25
2023/06/20 00:54:37;;;;;;;4.80;3.30;;;26.10;55.70;;;;;;4985023;28;20022;-25
2023/06/20 00:57:04;;;;;;;4.22;3.08;;;26.10;55.70;;;;;;5027635;28;20483;-27
2023/06/20 00:59:30;;;;;;;4.15;2.95;;;26.00;55.90;;;;;;5001629;28;20037;-26
2023/06/20 01:01:55;;;;;;;5.17;3.10;;;26.00;55.90;;;;;;5018440;28;20029;-26
2023/06/20 01:04:21;;;;;;;4.78;3.35;;;26.00;56.10;;;;;;5017308;28;20064;-24
2023/06/20 01:07:03;;;;;;;4.70;3.28;;;26.00;56.00;;;;;;5052649;28;20629;-27
2023/06/20 01:09:40;;;;;;;4.93;3.30;;;26.00;56.90;;;;;;4994861;28;20033;-24
2023/06/20 01:12:30;;;;;;;5.43;3.20;;;25.90;56.60;;;;;;5020100;28;20482;-25
2023/06/20 01:15:37;;;;;;;5.32;3.08;;;25.90;57.10;;;;;;5033082;28;20506;-25
2023/06/20 01:18:15;;;;;;;5.38;3.10;;;25.90;56.50;;;;;;5001898;28;20045;-25
2023/06/20 01:20:50;;;;;;;4.88;3.10;;;25.80;56.80;;;;;;4999390;28;20106;-25
2023/06/20 01:23:25;;;;;;;4.87;2.90;;;25.70;56.40;;;;;;5012217;28;20020;-25
2023/06/20 01:26:08;;;;;;;5.43;3.28;;;25.70;56.30;;;;;;4996170;28;20313;-25
2023/06/20 01:28:46;;;;;;;5.43;3.22;;;25.60;56.60;;;;;;5018872;28;20083;-23
2023/06/20 01:31:16;;;;;;;5.35;3.35;;;25.60;56.60;;;;;;5010993;28;20419;-25
2023/06/20 01:33:47;;;;;;;6.35;3.70;;;25.60;56.30;;;;;;5018553;28;20542;-27
2023/06/20 01:36:17;;;;;;;5.20;3.23;;;25.50;56.00;;;;;;5023460;28;20048;-26
2023/06/20 01:38:44;;;;;;;6.13;3.63;;;25.50;56.20;;;;;;5011126;28;20712;-26
2023/06/20 01:41:13;;;;;;;5.10;3.58;;;25.40;56.20;;;;;;4996766;28;20052;-25
2023/06/20 01:43:39;;;;;;;5.70;3.50;;;25.40;56.20;;;;;;5038499;28;20112;-25
2023/06/20 01:46:07;;;;;;;5.90;3.63;;;25.30;56.10;;;;;;5018466;28;20086;-27
2023/06/20 01:48:34;;;;;;;4.82;3.50;;;25.30;56.30;;;;;;5013502;28;20551;-26
2023/06/20 01:51:01;;;;;;;5.65;3.58;;;25.30;56.40;;;;;;5020971;28;20025;-25
2023/06/20 01:53:28;;;;;;;5.57;3.53;;;25.20;56.40;;;;;;5015943;28;20216;-27
2023/06/20 01:55:55;;;;;;;6.63;3.80;;;25.10;56.50;;;;;;4980718;28;20053;-26
2023/06/20 01:58:22;;;;;;;6.10;3.87;;;25.10;56.70;;;;;;5016591;28;20029;-24
2023/06/20 02:00:49;;;;;;;6.80;3.65;;;25.00;57.00;;;;;;4999704;28;20084;-27
2023/06/20 02:03:16;;;;;;;5.32;3.60;;;25.00;56.70;;;;;;5044074;28;20030;-26
2023/06/20 02:05:44;;;;;;;7.28;3.40;;;24.90;56.80;;;;;;5017575;28;20541;-25
2023/06/20 02:08:12;;;;;;;5.80;3.38;;;24.80;56.90;;;;;;5004658;28;20229;-24
2023/06/20 02:10:40;;;;;;;6.70;3.77;;;24.80;57.20;;;;;;5010306;28;20059;-24
2023/06/20 02:13:07;;;;;;;5.50;3.80;;;24.70;57.20;;;;;;5016267;28;21821;-24
2023/06/20 02:15:34;;;;;;;5.82;3.58;;;24.70;57.20;;;;;;5018540;28;20018;-26
2023/06/20 02:18:02;;;;;;;6.30;3.47;;;24.60;57.30;;;;;;5003674;28;20261;-26
2023/06/20 02:20:29;;;;;;;5.60;3.60;;;24.60;57.40;;;;;;5015618;28;20116;-26
2023/06/20 02:22:56;;;;;;;5.60;3.57;;;24.50;57.50;;;;;;5014673;28;20029;-24
2023/06/20 02:25:35;;;;;;;5.82;3.90;;;24.50;57.60;;;;;;5014079;28;20025;-26
2023/06/20 02:28:04;;;;;;;5.68;3.72;;;24.40;58.20;;;;;;5007273;28;21196;-24
2023/06/20 02:30:31;;;;;;;5.50;3.22;;;24.40;58.00;;;;;;5039251;28;20029;-24
2023/06/20 02:32:59;;;;;;;5.68;3.83;;;24.30;58.00;;;;;;5005696;28;20033;-25
2023/06/20 02:35:26;;;;;;;7.10;3.83;;;24.30;58.10;;;;;;5021853;28;20044;-25
2023/06/20 02:37:58;;;;;;;6.15;3.92;;;24.30;58.10;;;;;;5015698;28;20052;-24
2023/06/20 02:40:24;;;;;;;5.60;3.33;;;24.20;58.80;;;;;;5019042;28;20619;-24
2023/06/20 02:42:50;;;;;;;5.57;3.22;;;24.20;58.30;;;;;;4982688;28;20322;-24
2023/06/20 02:45:17;;;;;;;5.25;3.45;;;24.10;58.40;;;;;;5011097;28;20079;-27
2023/06/20 02:48:19;;;;;;;5.70;3.50;;;24.10;58.50;;;;;;5016598;28;20040;-24
2023/06/20 02:50:48;;;;;;;5.18;3.40;;;24.10;59.80;;;;;;5050329;28;20702;-23
2023/06/20 02:53:42;;;;;;;5.10;3.42;;;24.00;58.90;;;;;;5017124;28;20107;-26
2023/06/20 02:56:13;;;;;;;5.57;3.22;;;24.00;59.80;;;;;;5019521;28;20639;-24
2023/06/20 02:58:46;;;;;;;6.13;3.60;;;23.90;59.10;;;;;;4993272;28;20029;-26
2023/06/20 03:01:18;;;;;;;4.90;3.47;;;23.90;59.40;;;;;;5007953;28;20108;-26
2023/06/20 03:03:45;;;;;;;4.80;3.28;;;23.90;59.40;;;;;;5025849;28;20042;-24
2023/06/20 03:06:15;;;;;;;5.95;3.63;;;23.80;59.10;;;;;;5019244;28;20025;-26
2023/06/20 03:08:43;;;;;;;6.25;3.53;;;23.80;59.80;;;;;;5052074;28;20032;-24
2023/06/20 03:11:09;;;;;;;5.20;3.75;;;23.80;59.60;;;;;;5017324;28;20222;-24
2023/06/20 03:13:35;;;;;;;6.00;3.43;;;23.80;59.60;;;;;;4992060;28;20048;-24
2023/06/20 03:16:00;;;;;;;4.88;3.40;;;23.70;59.70;;;;;;5006639;28;20029;-25
2023/06/20 03:18:29;;;;;;;5.47;3.67;;;23.70;59.90;;;;;;5019277;28;20095;-24
2023/06/20 03:20:55;;;;;;;5.40;3.50;;;23.70;60.00;;;;;;5005654;28;20402;-25
2023/06/20 03:23:21;;;;;;;6.10;3.58;;;23.70;60.10;;;;;;5017266;28;20533;-24
2023/06/20 03:25:46;;;;;;;4.10;3.30;;;23.70;60.20;;;;;;5017510;28;20071;-27
2023/06/20 03:28:12;;;;;;;4.45;3.20;;;23.70;60.40;;;;;;4986325;28;20408;-25
2023/06/20 03:30:38;;;;;;;4.70;3.37;;;23.70;60.40;;;;;;5018500;28;20575;-25
2023/06/20 03:33:04;;;;;;;5.18;3.50;;;23.70;60.60;;;;;;5006233;28;20041;-25
2023/06/20 03:35:30;;;;;;;4.88;3.50;;;23.70;60.60;;;;;;5014153;28;20041;-25
2023/06/20 03:37:55;;;;;;;4.33;3.30;;;23.70;60.60;;;;;;5016637;28;20101;-25
2023/06/20 03:40:21;;;;;;;4.63;3.33;;;23.70;61.50;;;;;;5015568;28;20105;-25
2023/06/20 03:42:48;;;;;;;5.47;3.10;;;23.70;60.80;;;;;;5048437;28;20086;-24
2023/06/20 03:45:14;;;;;;;4.10;3.25;;;23.70;60.90;;;;;;4984891;28;20017;-25
2023/06/20 03:47:40;;;;;;;5.28;3.33;;;23.70;60.90;;;;;;4989677;28;20026;-24
2023/06/20 03:50:06;;;;;;;4.20;3.10;;;23.70;60.90;;;;;;5012721;28;20084;-25
2023/06/20 03:52:32;;;;;;;4.90;3.25;;;23.70;61.10;;;;;;5009281;28;20124;-26
2023/06/20 03:54:57;;;;;;;4.45;3.08;;;23.70;61.20;;;;;;5004175;28;20313;-27
2023/06/20 03:57:23;;;;;;;4.33;2.83;;;23.70;61.30;;;;;;5017786;28;20356;-25
2023/06/20 03:59:49;;;;;;;3.95;2.92;;;23.70;61.40;;;;;;4991006;28;20037;-25
2023/06/20 04:02:14;;;;;;;5.40;3.27;;;23.70;61.50;;;;;;5021596;28;20013;-24
2023/06/20 04:04:40;;;;;;;4.70;3.10;;;23.70;61.60;;;;;;5019161;28;20563;-25
2023/06/20 04:07:08;;;;;;;4.50;3.00;;;23.70;61.80;;;;;;5012920;28;20037;-25
2023/06/20 04:09:34;;;;;;;4.97;3.00;;;23.70;61.90;;;;;;5020543;28;20398;-24
2023/06/20 04:11:59;;;;;;;4.47;3.33;;;23.70;61.90;;;;;;5017871;28;20613;-26
2023/06/20 04:14:25;;;;;;;5.10;3.27;;;23.70;62.10;;;;;;5022036;28;20275;-26
2023/06/20 04:16:51;;;;;;;4.17;2.93;;;23.70;62.10;;;;;;4989170;28;20731;-24
2023/06/20 04:19:17;;;;;;;4.53;3.28;;;23.80;62.40;;;;;;5035135;28;20021;-25
2023/06/20 04:21:42;;;;;;;4.30;2.97;;;23.80;62.50;;;;;;5014114;28;20411;-26
2023/06/20 04:24:08;;;;;;;3.63;2.73;;;23.80;62.60;;;;;;5047828;28;20029;-25
2023/06/20 04:26:36;;;;;;;3.80;2.80;;;23.90;62.60;;;;;;5019995;28;20026;-26
2023/06/20 04:29:02;;;;;;;5.13;3.07;;;23.90;62.70;;;;;;5020351;28;20280;-25
2023/06/20 04:31:29;;;;;;;5.85;3.00;;;23.90;62.70;;;;;;5007614;28;20026;-26
2023/06/20 04:33:57;;;;;;;4.70;2.97;;;23.90;62.70;;;;;;5019344;28;20033;-25
2023/06/20 04:36:23;;;;;;;4.45;2.85;;;23.90;62.90;;;;;;5019504;28;20049;-24
2023/06/20 04:38:49;;;;;;;3.45;2.70;;;23.90;62.80;;;;;;5008711;28;20675;-24
2023/06/20 04:41:14;;;;;;;3.67;2.50;;;23.90;62.80;;;;;;4997353;28;20022;-25
2023/06/20 04:43:44;;;;;;;3.60;2.60;;;23.90;62.70;;;;;;5018752;28;20109;-28
2023/06/20 04:46:15;;;;;;;4.17;2.70;;;23.90;62.70;;;;;;4990638;28;20525;-26
2023/06/20 04:48:42;;;;;;;3.55;2.50;;;23.90;63.10;;;;;;5003633;28;20055;-25
2023/06/20 04:51:09;;;;;;;3.55;2.55;;;24.00;63.10;;;;;;5020360;28;20056;-24
2023/06/20 04:53:35;;;;;;;3.78;2.55;;;23.90;63.20;;;;;;5009639;28;20160;-24
2023/06/20 04:56:01;;;;;;;4.07;2.55;;;24.00;63.20;;;;;;5010883;28;20488;-25
2023/06/20 04:58:28;;;;;;;3.93;2.50;;;24.00;63.30;;;;;;5019372;28;20040;-31
2023/06/20 05:00:58;;;;;;;3.20;2.50;;;24.00;63.30;;;;;;4985385;28;20026;-26
2023/06/20 05:03:25;;;;;;;3.53;2.50;;;24.10;63.80;;;;;;5023171;28;20590;-25
2023/06/20 05:05:51;;;;;;;3.28;2.40;;;24.00;63.40;;;;;;4999787;28;20033;-23
2023/06/20 05:08:17;;;;;;;3.00;2.07;;;24.10;63.50;;;;;;5017400;28;20021;-26
2023/06/20 05:10:42;;;;;;;3.17;2.13;;;24.10;63.50;;;;;;5004889;28;20040;-27
2023/06/20 05:13:08;;;;;;;3.13;2.20;;;24.10;63.60;;;;;;5027539;28;20028;-27
2023/06/20 05:15:34;;;;;;;3.40;2.13;;;24.10;63.60;;;;;;5000200;28;20033;-26
2023/06/20 05:18:00;;;;;;;4.25;2.28;;;24.10;63.60;;;;;;5005466;28;20030;-25
2023/06/20 05:20:25;;;;;;;2.80;1.93;;;24.20;63.70;;;;;;5012206;28;20091;-24
2023/06/20 05:22:51;;;;;;;3.25;2.00;;;24.10;63.60;;;;;;5000877;28;20034;-24
2023/06/20 05:25:17;;;;;;;4.10;2.40;;;24.10;63.70;;;;;;5011445;28;20113;-25
2023/06/20 05:27:43;;;;;;;3.25;2.20;;;24.10;63.80;;;;;;5017694;28;20111;-27
2023/06/20 05:30:09;;;;;;;2.90;2.10;;;24.10;63.90;;;;;;5023933;28;20740;-24
2023/06/20 05:32:34;;;;;;;3.78;2.33;;;24.10;64.00;;;;;;4989017;28;20059;-25
2023/06/20 05:35:00;;;;;;;4.55;2.15;;;24.10;64.10;;;;;;5012021;28;20191;-27
2023/06/20 05:37:29;;;;;;;3.45;2.10;;;24.10;64.30;;;;;;4986438;28;20049;-26
2023/06/20 05:39:55;;;;;;;2.47;2.00;;;24.10;64.50;;;;;;5000868;28;20025;-26
2023/06/20 05:42:21;;;;;;;2.35;1.80;;;24.10;64.50;;;;;;5023243;28;20584;-24
2023/06/20 05:44:47;;;;;;;3.60;2.03;;;24.10;64.70;;;;;;5007229;28;20807;-24
2023/06/20 05:47:17;;;;;;;2.80;2.00;;;24.10;64.80;;;;;;4990308;28;20033;-27
2023/06/20 05:49:44;;;;;;;3.13;2.08;;;24.10;64.90;;;;;;5014457;28;20056;-24
2023/06/20 05:52:10;;;;;;;3.30;2.10;;;24.20;65.20;;;;;;4993976;28;20037;-26
2023/06/20 05:54:36;;;;;;;2.85;2.20;;;24.20;65.30;;;;;;5006986;28;20025;-28
2023/06/20 05:57:02;;;;;;;2.70;2.10;;;24.20;65.40;;;;;;5007609;28;20029;-24
2023/06/20 05:59:28;;;;;;;2.88;2.05;;;24.30;65.30;;;;;;5014346;28;20074;-27
2023/06/20 06:01:53;;;;;;;3.08;2.15;;;24.30;65.40;;;;;;5018660;28;20029;-25
2023/06/20 06:04:19;;;;;;;2.87;2.00;;;24.30;65.40;;;;;;4989421;28;20030;-24
2023/06/20 06:06:45;;;;;;;2.92;2.20;;;24.30;65.40;;;;;;4992793;28;20101;-27
2023/06/20 06:09:11;;;;;;;3.13;2.10;;;24.30;65.40;;;;;;4990346;28;20065;-25
2023/06/20 06:11:37;;;;;;;2.70;2.00;;;24.40;65.50;;;;;;4999081;28;20396;-25
2023/06/20 06:14:02;;;;;;;2.25;1.95;;;24.40;65.50;;;;;;5018256;28;20025;-26
2023/06/20 06:16:28;;;;;;;3.00;2.20;;;24.40;65.80;;;;;;5028154;28;20323;-26
2023/06/20 06:18:55;;;;;;;3.70;2.20;;;24.40;65.80;;;;;;4982194;28;20032;-24
2023/06/20 06:21:20;;;;;;;3.03;2.27;;;24.50;66.10;;;;;;5016522;28;20615;-26
2023/06/20 06:23:47;;;;;;;2.90;2.17;;;24.50;66.10;;;;;;5001033;28;20285;-26
2023/06/20 06:26:13;;;;;;;2.95;2.13;;;24.50;66.20;;;;;;5009084;28;20025;-26
2023/06/20 06:28:39;;;;;;;2.80;2.17;;;24.50;66.10;;;;;;5011306;28;20710;-26
2023/06/20 06:31:11;;;;;;;3.87;2.10;;;24.60;66.20;;;;;;5016715;28;20025;-23
2023/06/20 06:33:37;;;;;;;3.78;2.00;;;24.60;66.50;;;;;;4988377;28;20140;-24
2023/06/20 06:36:04;;;;;;;3.13;1.80;;;24.70;66.30;;;;;;5032826;28;20059;-25
2023/06/20 06:38:32;;;;;;;3.43;2.00;;;24.70;66.40;;;;;;5000356;28;20086;-27
2023/06/20 06:40:59;;;;;;;3.42;1.90;;;24.80;66.50;;;;;;5016132;28;20473;-24
2023/06/20 06:43:25;;;;;;;2.50;2.13;;;24.80;66.50;;;;;;5001902;28;20246;-25
2023/06/20 06:45:52;;;;;;;2.72;2.03;;;24.90;66.50;;;;;;5018846;28;20017;-24
2023/06/20 06:48:18;;;;;;;3.20;2.05;;;24.90;66.40;;;;;;4983947;28;20221;-24
2023/06/20 06:50:45;;;;;;;2.60;2.00;;;25.00;66.30;;;;;;5001438;28;20025;-24
2023/06/20 06:53:11;;;;;;;3.00;1.95;;;25.10;66.60;;;;;;4999182;28;20311;-26
2023/06/20 06:55:37;;;;;;;2.45;1.98;;;25.10;66.60;;;;;;5022452;28;20598;-28
2023/06/20 06:58:02;;;;;;;2.70;1.90;;;25.20;66.60;;;;;;5011680;28;20123;-25
2023/06/20 07:00:29;;;;;;;2.95;1.92;;;25.20;66.70;;;;;;5013820;28;20036;-25
2023/06/20 07:02:54;;;;;;;3.33;2.10;;;25.40;66.70;;;;;;5003050;28;20171;-24
2023/06/20 07:05:20;;;;;;;2.92;1.88;;;25.40;66.60;;;;;;4987399;28;20030;-25
2023/06/20 07:07:46;;;;;;;2.87;2.07;;;25.50;66.70;;;;;;4996368;28;20032;-24
2023/06/20 07:10:12;;;;;;;2.70;1.90;;;25.60;66.70;;;;;;5015138;28;20092;-26
2023/06/20 07:12:38;;;;;;;2.17;1.80;;;25.70;66.60;;;;;;5007008;28;20032;-28
2023/06/20 07:15:04;;;;;;;3.08;1.90;;;25.70;66.50;;;;;;5010123;28;20856;-26
2023/06/20 07:17:30;;;;;;;2.70;2.20;;;25.80;66.40;;;;;;5021964;28;20090;-26
2023/06/20 07:19:56;;;;;;;2.38;1.80;;;25.90;66.30;;;;;;4988798;28;20648;-26
2023/06/20 07:22:22;;;;;;;2.30;1.97;;;26.00;66.30;;;;;;5020573;28;20026;-25
2023/06/20 07:24:48;;;;;;;2.70;1.77;;;26.10;66.50;;;;;;5000540;28;20572;-26
2023/06/20 07:27:14;;;;;;;2.45;2.00;;;26.10;66.40;;;;;;5026458;28;20017;-24
2023/06/20 07:29:41;;;;;;;2.40;1.67;;;26.20;66.30;;;;;;5016388;28;20098;-26
2023/06/20 07:32:07;;;;;;;3.22;1.67;;;26.30;66.30;;;;;;5016951;28;20529;-24
2023/06/20 07:34:33;;;;;;;4.68;2.00;;;26.40;66.40;;;;;;5023901;28;20746;-24
2023/06/20 07:36:58;;;;;;;2.20;1.80;;;26.50;66.40;;;;;;4989928;28;20238;-26
2023/06/20 07:39:24;;;;;;;2.27;1.80;;;26.60;66.40;;;;;;5004441;28;20513;-27
2023/06/20 07:41:50;;;;;;;2.97;2.00;;;26.70;66.30;;;;;;5021623;28;20052;-25
2023/06/20 07:44:16;;;;;;;2.87;2.00;;;26.80;66.30;;;;;;5016727;28;20034;-25
2023/06/20 07:46:41;;;;;;;2.10;1.80;;;26.90;66.10;;;;;;5007378;28;20037;-24
2023/06/20 07:49:07;;;;;;;2.30;1.80;;;27.00;66.00;;;;;;5015529;28;20037;-25
2023/06/20 07:51:33;;;;;;;2.83;1.75;;;27.10;65.80;;;;;;4991568;28;20084;-24
2023/06/20 07:54:05;;;;;;;2.88;2.00;;;27.20;65.70;;;;;;5015492;28;20041;-24
2023/06/20 07:56:31;;;;;;;2.93;1.90;;;27.30;65.80;;;;;;5003272;28;20060;-25
2023/06/20 07:58:57;;;;;;;2.08;1.77;;;27.40;65.80;;;;;;5008162;28;20649;-27
2023/06/20 08:01:23;;;;;;;2.10;1.65;;;27.50;66.00;;;;;;5004288;28;20025;-24
2023/06/20 08:03:48;;;;;;;2.00;1.50;;;27.70;66.20;;;;;;5014936;28;20099;-27
2023/06/20 08:06:14;;;;;;;2.88;1.80;;;27.80;66.10;;;;;;5022172;28;20018;-26
2023/06/20 08:08:41;;;;;;;1.63;1.53;;;28.00;65.70;;;;;;5017964;28;20087;-26
2023/06/20 08:11:07;;;;;;;1.90;1.70;;;28.20;65.50;;;;;;5003127;28;20864;-25
2023/06/20 08:13:33;;;;;;;2.20;1.77;;;28.40;65.50;;;;;;5020566;28;20219;-25
2023/06/20 08:15:59;;;;;;;2.87;1.90;;;28.50;65.60;;;;;;4998765;28;20242;-24
2023/06/20 08:18:25;;;;;;;2.17;1.67;;;28.70;66.20;;;;;;5020954;28;20034;-24
2023/06/20 08:20:50;;;;;;;1.60;1.50;;;29.00;66.70;;;;;;5010124;28;20079;-27
2023/06/20 08:23:26;;;;;;;2.13;1.90;;;29.30;66.90;;;;;;4989395;28;20030;-24
2023/06/20 08:25:56;;;;;;;2.10;1.90;;;29.80;65.90;;;;;;4999199;28;20372;-25
2023/06/20 08:28:25;;;;;;;2.83;1.90;;;30.10;65.50;;;;;;5017488;28;20030;-25
2023/06/20 08:30:51;;;;;;;2.72;1.80;;;30.50;65.00;;;;;;4999614;28;20374;-23
2023/06/20 08:33:19;;;;;;;1.90;1.70;;;30.80;64.80;;;;;;5018549;28;20014;-26
2023/06/20 08:35:45;;;;;;;2.15;1.70;;;31.10;64.20;;;;;;5020828;28;20135;-24
2023/06/20 08:38:11;;;;;;;2.47;1.75;;;31.50;63.60;;;;;;4986470;28;20045;-24
2023/06/20 08:40:38;;;;;;;3.15;2.00;;;31.80;63.10;;;;;;5016614;28;20018;-24
2023/06/20 08:43:04;;;;;;;2.30;1.80;;;32.00;62.80;;;;;;5005208;28;20204;-26
2023/06/20 08:45:30;;;;;;;2.10;1.90;;;32.40;62.70;;;;;;5014963;28;20036;-24
2023/06/20 08:47:59;;;;;;;2.35;2.05;;;32.60;61.90;;;;;;5011446;28;20041;-25
2023/06/20 08:50:28;;;;;;;2.13;1.73;;;32.90;61.40;;;;;;5018619;28;20025;-27
2023/06/20 08:52:59;;;;;;;2.00;1.80;;;33.30;60.70;;;;;;4989213;28;20116;-26
2023/06/20 08:55:26;;;;;;;2.55;1.80;;;33.50;59.70;;;;;;5024948;28;20040;-24
2023/06/20 08:57:52;;;;;;;2.20;1.75;;;33.80;59.10;;;;;;5008297;28;20116;-25
2023/06/20 09:00:23;;;;;;;2.60;1.90;;;34.10;58.80;;;;;;4994352;28;20059;-24
2023/06/20 09:02:53;;;;;;;2.57;1.90;;;34.40;58.30;;;;;;5009178;28;20450;-25
2023/06/20 09:05:20;;;;;;;2.45;1.77;;;34.60;57.00;;;;;;5010595;28;20186;-27
2023/06/20 09:07:46;;;;;;;1.90;1.70;;;34.80;57.40;;;;;;5000996;28;20251;-25
2023/06/20 09:10:14;;;;;;;2.08;1.88;;;35.10;56.70;;;;;;4997866;28;20257;-26
2023/06/20 09:12:54;;;;;;;3.05;1.77;;;35.30;56.00;;;;;;5019107;28;20112;-25
2023/06/20 09:15:21;;;;;;;1.80;1.70;;;35.50;54.20;;;;;;5022128;28;20849;-25
2023/06/20 09:18:09;;;;;;;3.72;1.63;;;35.70;54.80;;;;;;5006537;28;20375;-25
2023/06/20 09:20:35;;;;;;;1.70;1.55;;;35.80;52.80;;;;;;5021961;28;20025;-25
2023/06/20 09:23:02;;;;;;;1.70;1.60;;;36.00;54.10;;;;;;5006381;28;20037;-25
2023/06/20 09:25:29;;;;;;;2.20;2.00;;;36.20;53.60;;;;;;4994434;28;20088;-23
2023/06/20 09:27:56;;;;;;;2.20;2.00;;;36.30;52.70;;;;;;5023282;28;20087;-24
2023/06/20 09:30:22;;;;;;;1.90;1.80;;;36.40;52.20;;;;;;5002287;28;20029;-25
2023/06/20 09:32:48;;;;;;;2.28;1.75;;;36.60;52.20;;;;;;5000391;28;22403;-25
2023/06/20 09:35:15;;;;;;;1.90;1.80;;;36.60;51.90;;;;;;5019136;28;20042;-25
2023/06/20 09:37:49;;;;;;;2.03;1.88;;;36.70;51.40;;;;;;5007194;28;20532;-26
2023/06/20 09:40:17;;;;;;;1.97;1.87;;;36.90;50.70;;;;;;4992780;28;20506;-26
2023/06/20 09:42:44;;;;;;;2.17;1.90;;;37.00;50.80;;;;;;5020503;28;20029;-25
2023/06/20 09:45:12;;;;;;;1.75;1.65;;;37.20;50.40;;;;;;5019817;28;20117;-26
2023/06/20 09:47:39;;;;;;;1.80;1.70;;;37.30;49.80;;;;;;4999967;28;20590;-25
2023/06/20 09:50:13;;;;;;;2.00;1.90;;;37.40;49.50;;;;;;5022951;28;20116;-25
2023/06/20 09:52:47;;;;;;;1.77;1.67;;;37.40;48.60;;;;;;5008406;28;20480;-26
2023/06/20 09:55:15;;;;;;;2.40;1.73;;;37.50;48.00;;;;;;4994837;28;20294;-26
2023/06/20 09:57:43;;;;;;;2.10;1.92;;;37.50;48.30;;;;;;5053052;28;20142;-25
2023/06/20 10:00:16;;;;;;;2.10;1.90;;;37.60;48.60;;;;;;5011275;28;20046;-25
2023/06/20 10:02:47;;;;;;;2.00;1.80;;;37.70;48.30;;;;;;5014297;28;20038;-26
2023/06/20 10:05:20;;;;;;;2.37;2.17;;;37.70;47.40;;;;;;5016402;28;20664;-24
2023/06/20 10:07:48;;;;;;;1.73;1.63;;;37.80;46.70;;;;;;5018901;28;20239;-25
2023/06/20 10:10:16;;;;;;;1.73;1.63;;;37.90;47.50;;;;;;4980790;28;20060;-26
2023/06/20 10:12:44;;;;;;;2.00;1.80;;;37.90;47.30;;;;;;5001791;28;20613;-25
2023/06/20 10:15:11;;;;;;;1.77;1.67;;;38.00;46.90;;;;;;5003731;28;20049;-24
2023/06/20 10:17:41;;;;;;;2.23;2.00;;;38.00;46.70;;;;;;4993377;28;20052;-24
2023/06/20 10:20:23;;;;;;;2.35;2.15;;;38.10;45.70;;;;;;5016236;28;20029;-25
2023/06/20 10:22:49;;;;;;;1.70;1.60;;;38.20;45.90;;;;;;5022614;28;20356;-25
2023/06/20 10:25:16;;;;;;;2.27;2.03;;;38.20;45.80;;;;;;4991411;28;20622;-25
2023/06/20 10:27:44;;;;;;;2.05;1.80;;;38.30;46.10;;;;;;5016790;28;20107;-25
2023/06/20 10:30:15;;;;;;;2.10;1.90;;;38.40;45.50;;;;;;5005149;28;20040;-27
2023/06/20 10:33:06;;;;;;;2.22;2.03;;;38.40;45.10;;;;;;5012791;28;20641;-24
2023/06/20 10:35:32;;;;;;;2.00;1.90;;;38.50;43.70;;;;;;4994759;28;20497;-26
2023/06/20 10:38:08;;;;;;;2.10;1.90;;;38.50;44.80;;;;;;5011223;28;20025;-26
2023/06/20 10:40:36;;;;;;;2.00;1.90;;;38.50;44.20;;;;;;4971046;28;21326;-25
2023/06/20 10:43:14;;;;;;;2.40;2.20;;;38.60;44.90;;;;;;5019254;28;20037;-24
2023/06/20 10:45:57;;;;;;;2.17;1.90;;;38.70;44.40;;;;;;5001877;28;20656;-26
2023/06/20 10:48:24;;;;;;;1.83;1.73;;;38.80;43.70;;;;;;5011267;28;20126;-26
2023/06/20 10:50:51;;;;;;;2.08;1.90;;;38.90;44.40;;;;;;5002676;28;21407;-25
2023/06/20 10:53:18;;;;;;;2.20;2.00;;;39.00;43.90;;;;;;5016403;28;20029;-24
2023/06/20 10:55:43;;;;;;;3.17;2.25;;;39.00;43.70;;;;;;4976909;28;20044;-24
2023/06/20 10:58:09;;;;;;;2.17;1.97;;;39.20;43.50;;;;;;5015846;28;20033;-24
2023/06/20 11:00:35;;;;;;;3.88;2.30;;;39.20;43.80;;;;;;4998616;28;20587;-25
2023/06/20 11:03:00;;;;;;;2.17;2.00;;;39.40;43.60;;;;;;5008422;28;20025;-24
2023/06/20 11:05:29;;;;;;;2.92;2.20;;;39.50;43.20;;;;;;5011518;28;20014;-23
2023/06/20 11:08:00;;;;;;;2.40;2.20;;;39.50;42.30;;;;;;5017065;28;20717;-25
2023/06/20 11:10:30;;;;;;;2.83;2.20;;;39.50;42.20;;;;;;5030725;28;20614;-23
2023/06/20 11:12:57;;;;;;;2.60;2.40;;;39.50;42.30;;;;;;4984054;28;20076;-24
2023/06/20 11:15:26;;;;;;;2.92;2.35;;;39.60;42.60;;;;;;5023101;28;20033;-24
2023/06/20 11:17:52;;;;;;;2.38;2.17;;;39.60;42.40;;;;;;4971589;28;20034;-28
2023/06/20 11:20:20;;;;;;;2.55;2.35;;;39.60;42.00;;;;;;5019306;28;20029;-24
2023/06/20 11:22:47;;;;;;;2.30;2.10;;;39.60;41.30;;;;;;5007171;28;20326;-24
2023/06/20 11:25:26;;;;;;;2.72;2.50;;;39.50;41.20;;;;;;5020217;28;20022;-25
2023/06/20 11:27:52;;;;;;;2.30;2.10;;;39.50;40.80;;;;;;4987095;28;20045;-25
2023/06/20 11:30:26;;;;;;;2.95;2.58;;;39.50;41.60;;;;;;5003820;28;20037;-26
2023/06/20 11:33:18;;;;;;;2.38;2.20;;;39.50;41.00;;;;;;5000511;28;20743;-25
2023/06/20 11:36:02;;;;;;;2.50;2.27;;;39.60;41.30;;;;;;5017220;28;20049;-25
2023/06/20 11:38:29;;;;;;;3.75;2.30;;;39.60;41.10;;;;;;5005838;28;20648;-26
2023/06/20 11:41:03;;;;;;;2.45;2.25;;;39.60;41.30;;;;;;5020691;28;20037;-24
2023/06/20 11:43:40;;;;;;;2.60;2.40;;;39.50;40.60;;;;;;5016773;28;20052;-24
2023/06/20 11:46:07;;;;;;;2.40;2.20;;;39.40;40.40;;;;;;5015328;28;20113;-25
2023/06/20 11:48:33;;;;;;;5.83;2.60;;;39.40;41.20;;;;;;5008705;28;20239;-25
2023/06/20 11:51:01;;;;;;;3.97;2.58;;;39.40;41.30;;;;;;5018358;28;20120;-25
2023/06/20 11:53:37;;;;;;;2.90;2.10;;;39.50;41.20;;;;;;5004219;28;20052;-25
2023/06/20 11:56:06;;;;;;;2.60;2.40;;;39.60;40.40;;;;;;5023628;28;20587;-25
2023/06/20 11:58:43;;;;;;;2.50;2.30;;;39.50;40.50;;;;;;5028119;28;20668;-25
2023/06/20 12:01:10;;;;;;;3.03;2.50;;;39.50;39.60;;;;;;4986918;28;20029;-25
2023/06/20 12:03:38;;;;;;;2.67;2.33;;;39.40;40.00;;;;;;5009440;28;20378;-25
2023/06/20 12:06:28;;;;;;;2.85;2.38;;;39.30;40.00;;;;;;5017911;28;20470;-24
2023/06/20 12:08:56;;;;;;;2.50;2.30;;;39.20;39.40;;;;;;5009590;28;20068;-25
2023/06/20 12:11:21;;;;;;;3.08;2.30;;;39.10;40.10;;;;;;5015324;28;20103;-25
2023/06/20 12:13:48;;;;;;;2.57;2.37;;;39.00;40.60;;;;;;5006421;28;20427;-26
2023/06/20 12:16:14;;;;;;;2.50;2.30;;;39.00;40.70;;;;;;4981843;28;20018;-24
2023/06/20 12:18:39;;;;;;;3.92;2.53;;;39.00;40.70;;;;;;5000546;28;20346;-25
2023/06/20 12:21:05;;;;;;;2.57;2.37;;;39.10;40.50;;;;;;5017668;28;20044;-26
2023/06/20 12:23:31;;;;;;;2.90;2.60;;;39.20;40.30;;;;;;5026157;28;22381;-26
2023/06/20 12:25:57;;;;;;;2.40;2.20;;;39.20;40.50;;;;;;5023026;28;20104;-24
2023/06/20 12:28:23;;;;;;;3.03;2.72;;;39.30;40.20;;;;;;5023310;28;20250;-26
2023/06/20 12:30:49;;;;;;;2.45;2.25;;;39.30;39.50;;;;;;4977863;28;20037;-25
2023/06/20 12:33:15;;;;;;;3.00;2.30;;;39.30;39.40;;;;;;4986636;28;20624;-26
2023/06/20 12:35:41;;;;;;;3.07;2.70;;;39.20;39.60;;;;;;5007978;28;20033;-25
2023/06/20 12:38:07;;;;;;;2.75;2.50;;;39.20;39.20;;;;;;5015506;28;20033;-23
2023/06/20 12:40:33;;;;;;;2.50;2.30;;;39.10;39.00;;;;;;5012706;28;20084;-24
2023/06/20 12:42:59;;;;;;;2.30;2.10;;;38.90;39.10;;;;;;5023337;28;20078;-24
2023/06/20 12:45:25;;;;;;;2.42;2.20;;;38.80;39.40;;;;;;5016982;28;20022;-25
2023/06/20 12:47:51;;;;;;;2.43;2.20;;;38.70;39.80;;;;;;4994524;28;20037;-29
2023/06/20 12:50:16;;;;;;;2.83;2.60;;;38.80;40.30;;;;;;5001773;28;20299;-24
2023/06/20 12:52:42;;;;;;;2.95;2.60;;;38.80;40.30;;;;;;5018978;28;20035;-25